createdAt,value
2016-05-05T00:00:36.242Z,0
2016-05-05T00:01:36.307Z,0
2016-05-05T00:02:36.357Z,0
2016-05-05T00:03:36.359Z,0
2016-05-05T00:04:36.237Z,0
2016-05-05T00:05:36.364Z,0
2016-05-05T00:06:36.164Z,0
2016-05-05T00:07:36.495Z,0
2016-05-05T00:08:36.247Z,0
2016-05-05T00:09:36.783Z,0
2016-05-05T00:10:36.628Z,0
2016-05-05T00:11:36.350Z,0
2016-05-05T00:12:36.727Z,0
2016-05-05T00:13:36.464Z,0
2016-05-05T00:14:36.608Z,0
2016-05-05T00:15:36.813Z,0
2016-05-05T00:16:36.879Z,0
2016-05-05T00:17:36.896Z,0
2016-05-05T00:18:36.791Z,0
2016-05-05T00:19:36.996Z,0
2016-05-05T00:20:37.030Z,0
2016-05-05T00:21:36.924Z,0
2016-05-05T00:22:36.942Z,0
2016-05-05T00:23:37.195Z,0
2016-05-05T00:24:37.385Z,0
2016-05-05T00:25:37.168Z,0
2016-05-05T00:26:37.296Z,0
2016-05-05T00:27:37.268Z,0
2016-05-05T00:28:37.317Z,0
2016-05-05T00:29:37.336Z,0
2016-05-05T00:30:37.463Z,0
2016-05-05T00:31:37.420Z,0
2016-05-05T00:32:37.469Z,0
2016-05-05T00:33:37.517Z,0
2016-05-05T00:34:37.428Z,0
2016-05-05T00:35:37.586Z,0
2016-05-05T00:36:37.620Z,0
2016-05-05T00:37:37.670Z,0
2016-05-05T00:38:37.406Z,0
2016-05-05T00:39:37.738Z,0
2016-05-05T00:40:37.458Z,0
2016-05-05T00:41:37.602Z,0
2016-05-05T00:42:37.855Z,0
2016-05-05T00:43:37.920Z,0
2016-05-05T00:44:37.797Z,0
2016-05-05T00:45:37.863Z,0
2016-05-05T00:46:38.021Z,0
2016-05-05T00:47:37.900Z,0
2016-05-05T00:48:37.918Z,0
2016-05-05T00:49:38.233Z,0
2016-05-05T00:50:37.876Z,0
2016-05-05T00:51:38.177Z,0
2016-05-05T00:52:38.116Z,0
2016-05-05T00:53:38.119Z,0
2016-05-05T00:54:38.324Z,0
2016-05-05T00:55:38.374Z,0
2016-05-05T00:56:38.393Z,0
2016-05-05T00:57:38.443Z,0
2016-05-05T00:58:38.493Z,0
2016-05-05T00:59:38.495Z,0
2016-05-05T01:00:38.262Z,0
2016-05-05T01:01:38.437Z,0
2016-05-05T01:02:38.643Z,0
2016-05-05T01:03:38.708Z,0
2016-05-05T01:04:38.555Z,0
2016-05-05T01:05:38.729Z,0
2016-05-05T01:06:38.639Z,0
2016-05-05T01:07:38.500Z,0
2016-05-05T01:08:38.737Z,0
2016-05-05T01:09:38.943Z,0
2016-05-05T01:10:38.914Z,0
2016-05-05T01:11:38.995Z,0
2016-05-05T01:12:38.669Z,0
2016-05-05T01:13:39.047Z,0
2016-05-05T01:14:38.941Z,0
2016-05-05T01:15:39.131Z,0
2016-05-05T01:16:39.150Z,0
2016-05-05T01:17:39.199Z,0
2016-05-05T01:18:39.280Z,0
2016-05-05T01:19:39.298Z,0
2016-05-05T01:20:39.301Z,0
2016-05-05T01:21:39.351Z,0
2016-05-05T01:22:39.447Z,0
2016-05-05T01:23:39.434Z,0
2016-05-05T01:24:40.452Z,0
2016-05-05T01:25:39.205Z,0
2016-05-05T01:26:39.568Z,0
2016-05-05T01:27:39.538Z,0
2016-05-05T01:28:39.635Z,0
2016-05-05T01:29:39.668Z,0
2016-05-05T01:30:39.546Z,0
2016-05-05T01:31:39.721Z,0
2016-05-05T01:32:39.787Z,0
2016-05-05T01:33:39.789Z,0
2016-05-05T01:34:39.573Z,0
2016-05-05T01:35:39.889Z,0
2016-05-05T01:36:39.907Z,0
2016-05-05T01:37:39.831Z,0
2016-05-05T01:38:40.006Z,0
2016-05-05T01:39:40.211Z,0
2016-05-05T01:40:39.761Z,0
2016-05-05T01:41:40.108Z,0
2016-05-05T01:42:40.158Z,0
2016-05-05T01:43:40.175Z,0
2016-05-05T01:44:40.131Z,0
2016-05-05T01:45:40.259Z,0
2016-05-05T01:46:40.152Z,0
2016-05-05T01:47:40.404Z,0
2016-05-05T01:48:40.438Z,0
2016-05-05T01:49:40.426Z,0
2016-05-05T01:50:40.475Z,0
2016-05-05T01:51:40.478Z,0
2016-05-05T01:52:40.330Z,0
2016-05-05T01:53:40.625Z,0
2016-05-05T01:54:40.514Z,0
2016-05-05T01:55:40.872Z,0
2016-05-05T01:56:40.761Z,0
2016-05-05T01:57:40.652Z,0
2016-05-05T01:58:40.889Z,0
2016-05-05T01:59:40.954Z,0
2016-05-05T02:00:41.097Z,0
2016-05-05T02:01:41.162Z,0
2016-05-05T02:02:41.254Z,0
2016-05-05T02:03:41.278Z,0
2016-05-05T02:04:41.145Z,0
2016-05-05T02:05:41.358Z,0
2016-05-05T02:06:41.069Z,0
2016-05-05T02:07:41.137Z,0
2016-05-05T02:08:41.486Z,0
2016-05-05T02:09:42.429Z,0
2016-05-05T02:10:41.573Z,0
2016-05-05T02:11:41.437Z,0
2016-05-05T02:12:41.660Z,0
2016-05-05T02:13:41.586Z,0
2016-05-05T02:14:41.635Z,0
2016-05-05T02:15:41.734Z,0
2016-05-05T02:16:41.767Z,0
2016-05-05T02:17:41.521Z,0
2016-05-05T02:18:41.868Z,0
2016-05-05T02:19:41.886Z,0
2016-05-05T02:20:41.874Z,0
2016-05-05T02:21:42.033Z,0
2016-05-05T02:22:41.850Z,0
2016-05-05T02:23:42.072Z,0
2016-05-05T02:24:42.684Z,0
2016-05-05T02:25:42.124Z,0
2016-05-05T02:26:42.001Z,0
2016-05-05T02:27:42.239Z,0
2016-05-05T02:28:42.117Z,0
2016-05-05T02:29:42.276Z,0
2016-05-05T02:30:42.154Z,0
2016-05-05T02:31:42.203Z,0
2016-05-05T02:32:42.096Z,0
2016-05-05T02:33:42.458Z,0
2016-05-05T02:34:42.179Z,0
2016-05-05T02:35:42.542Z,0
2016-05-05T02:36:42.528Z,0
2016-05-05T02:37:42.594Z,0
2016-05-05T02:38:42.644Z,0
2016-05-05T02:39:42.568Z,0
2016-05-05T02:40:42.696Z,0
2016-05-05T02:41:42.777Z,0
2016-05-05T02:42:42.670Z,0
2016-05-05T02:43:42.641Z,0
2016-05-05T02:44:42.582Z,0
2016-05-05T02:45:42.881Z,0
2016-05-05T02:46:43.008Z,0
2016-05-05T02:47:42.808Z,0
2016-05-05T02:48:43.030Z,0
2016-05-05T02:49:42.907Z,0
2016-05-05T02:50:43.145Z,0
2016-05-05T02:51:43.100Z,0
2016-05-05T02:52:43.182Z,0
2016-05-05T02:53:43.090Z,0
2016-05-05T02:54:43.312Z,0
2016-05-05T02:55:43.096Z,0
2016-05-05T02:56:43.396Z,0
2016-05-05T02:57:43.413Z,0
2016-05-05T02:58:43.385Z,0
2016-05-05T02:59:43.451Z,0
2016-05-05T03:00:43.547Z,0
2016-05-05T03:01:43.487Z,0
2016-05-05T03:02:43.552Z,0
2016-05-05T03:03:43.461Z,0
2016-05-05T03:04:43.464Z,0
2016-05-05T03:05:43.498Z,0
2016-05-05T03:06:43.703Z,0
2016-05-05T03:07:43.550Z,0
2016-05-05T03:08:43.803Z,0
2016-05-05T03:09:43.665Z,0
2016-05-05T03:10:43.839Z,0
2016-05-05T03:11:43.950Z,0
2016-05-05T03:12:43.781Z,0
2016-05-05T03:13:43.941Z,0
2016-05-05T03:14:44.037Z,0
2016-05-05T03:15:43.899Z,0
2016-05-05T03:16:43.480Z,0
2016-05-05T03:17:43.936Z,0
2016-05-05T03:18:44.205Z,0
2016-05-05T03:19:44.114Z,0
2016-05-05T03:20:44.053Z,0
2016-05-05T03:21:44.243Z,0
2016-05-05T03:22:44.324Z,0
2016-05-05T03:23:44.343Z,0
2016-05-05T03:24:44.502Z,0
2016-05-05T03:25:44.474Z,0
2016-05-05T03:26:44.491Z,0
2016-05-05T03:27:44.463Z,5
2016-05-05T03:28:44.387Z,5
2016-05-05T03:29:44.297Z,5
2016-05-05T03:30:44.596Z,5
2016-05-05T03:31:44.614Z,5
2016-05-05T03:32:44.710Z,5
2016-05-05T03:33:44.745Z,5
2016-05-05T03:34:44.732Z,5
2016-05-05T03:35:44.766Z,10
2016-05-05T03:36:44.878Z,10
2016-05-05T03:37:44.709Z,10
2016-05-05T03:38:44.884Z,10
2016-05-05T03:39:44.995Z,10
2016-05-05T03:40:44.811Z,10
2016-05-05T03:41:45.031Z,15
2016-05-05T03:42:44.347Z,15
2016-05-05T03:43:44.959Z,15
2016-05-05T03:44:44.978Z,15
2016-05-05T03:45:45.167Z,15
2016-05-05T03:46:44.873Z,20
2016-05-05T03:47:45.095Z,20
2016-05-05T03:48:45.254Z,20
2016-05-05T03:49:45.288Z,20
2016-05-05T03:50:45.180Z,20
2016-05-05T03:51:45.402Z,25
2016-05-05T03:52:45.405Z,25
2016-05-05T03:53:45.438Z,25
2016-05-05T03:54:45.613Z,30
2016-05-05T03:55:45.522Z,30
2016-05-05T03:56:45.416Z,30
2016-05-05T03:57:45.513Z,30
2016-05-05T03:58:45.468Z,35
2016-05-05T03:59:45.549Z,35
2016-05-05T04:00:45.692Z,35
2016-05-05T04:01:45.585Z,35
2016-05-05T04:02:45.838Z,40
2016-05-05T04:03:45.825Z,40
2016-05-05T04:04:45.718Z,40
2016-05-05T04:05:45.893Z,40
2016-05-05T04:06:45.802Z,45
2016-05-05T04:07:45.946Z,45
2016-05-05T04:08:45.729Z,45
2016-05-05T04:09:45.810Z,45
2016-05-05T04:10:45.937Z,50
2016-05-05T04:11:46.112Z,50
2016-05-05T04:12:46.178Z,50
2016-05-05T04:13:46.056Z,50
2016-05-05T04:14:46.245Z,55
2016-05-05T04:15:46.280Z,55
2016-05-05T04:16:46.329Z,55
2016-05-05T04:17:46.317Z,55
2016-05-05T04:18:46.225Z,60
2016-05-05T04:19:46.431Z,60
2016-05-05T04:20:46.464Z,60
2016-05-05T04:21:46.499Z,60
2016-05-05T04:22:46.517Z,60
2016-05-05T04:23:46.426Z,65
2016-05-05T04:24:46.647Z,65
2016-05-05T04:25:46.635Z,65
2016-05-05T04:26:46.185Z,70
2016-05-05T04:27:46.719Z,70
2016-05-05T04:28:46.736Z,70
2016-05-05T04:29:46.833Z,75
2016-05-05T04:30:46.820Z,75
2016-05-05T04:31:46.729Z,80
2016-05-05T04:32:46.872Z,80
2016-05-05T04:33:46.781Z,85
2016-05-05T04:34:46.846Z,90
2016-05-05T04:35:46.895Z,90
2016-05-05T04:36:46.883Z,90
2016-05-05T04:37:47.089Z,90
2016-05-05T04:38:47.123Z,90
2016-05-05T04:39:47.032Z,90
2016-05-05T04:40:47.034Z,90
2016-05-05T04:41:46.943Z,90
2016-05-05T04:42:47.149Z,85
2016-05-05T04:43:47.323Z,85
2016-05-05T04:44:47.342Z,85
2016-05-05T04:45:47.236Z,85
2016-05-05T04:46:47.285Z,85
2016-05-05T04:47:47.272Z,85
2016-05-05T04:48:47.211Z,85
2016-05-05T04:49:47.559Z,85
2016-05-05T04:50:47.420Z,85
2016-05-05T04:51:47.580Z,90
2016-05-05T04:52:47.175Z,90
2016-05-05T04:53:47.695Z,90
2016-05-05T04:54:47.572Z,90
2016-05-05T04:55:47.574Z,90
2016-05-05T04:56:47.859Z,95
2016-05-05T04:57:47.705Z,95
2016-05-05T04:58:47.863Z,100
2016-05-05T04:59:47.930Z,100
2016-05-05T05:00:47.682Z,105
2016-05-05T05:01:47.622Z,105
2016-05-05T05:02:48.016Z,105
2016-05-05T05:03:47.877Z,105
2016-05-05T05:04:48.098Z,105
2016-05-05T05:05:48.117Z,110
2016-05-05T05:06:48.183Z,110
2016-05-05T05:07:48.013Z,110
2016-05-05T05:08:48.251Z,110
2016-05-05T05:09:47.956Z,110
2016-05-05T05:10:48.162Z,110
2016-05-05T05:11:48.351Z,110
2016-05-05T05:12:48.262Z,110
2016-05-05T05:13:48.264Z,110
2016-05-05T05:14:48.470Z,110
2016-05-05T05:15:48.582Z,110
2016-05-05T05:16:48.522Z,115
2016-05-05T05:17:48.586Z,115
2016-05-05T05:18:48.667Z,115
2016-05-05T05:19:48.561Z,115
2016-05-05T05:20:48.673Z,115
2016-05-05T05:21:48.567Z,120
2016-05-05T05:22:48.788Z,120
2016-05-05T05:23:48.681Z,120
2016-05-05T05:24:48.684Z,120
2016-05-05T05:25:48.889Z,125
2016-05-05T05:26:48.752Z,125
2016-05-05T05:27:48.801Z,125
2016-05-05T05:28:48.960Z,130
2016-05-05T05:29:48.900Z,130
2016-05-05T05:30:48.763Z,125
2016-05-05T05:31:49.109Z,125
2016-05-05T05:32:48.987Z,125
2016-05-05T05:33:49.021Z,125
2016-05-05T05:34:48.898Z,130
2016-05-05T05:35:49.245Z,130
2016-05-05T05:36:49.341Z,130
2016-05-05T05:37:49.406Z,130
2016-05-05T05:38:49.206Z,130
2016-05-05T05:39:49.474Z,135
2016-05-05T05:40:49.462Z,135
2016-05-05T05:41:49.307Z,135
2016-05-05T05:42:49.326Z,135
2016-05-05T05:43:49.547Z,135
2016-05-05T05:44:49.628Z,135
2016-05-05T05:45:49.365Z,140
2016-05-05T05:46:49.337Z,140
2016-05-05T05:47:49.777Z,140
2016-05-05T05:48:49.623Z,140
2016-05-05T05:49:49.767Z,140
2016-05-05T05:50:49.675Z,140
2016-05-05T05:51:49.913Z,140
2016-05-05T05:52:49.712Z,140
2016-05-05T05:53:49.777Z,135
2016-05-05T05:54:49.655Z,140
2016-05-05T05:55:50.049Z,140
2016-05-05T05:56:49.894Z,140
2016-05-05T05:57:49.929Z,140
2016-05-05T05:58:50.103Z,140
2016-05-05T05:59:50.231Z,135
2016-05-05T06:00:50.202Z,135
2016-05-05T06:01:50.205Z,135
2016-05-05T06:02:49.973Z,135
2016-05-05T06:03:50.148Z,135
2016-05-05T06:04:50.198Z,135
2016-05-05T06:05:50.388Z,130
2016-05-05T06:06:50.313Z,130
2016-05-05T06:07:50.299Z,130
2016-05-05T06:08:50.348Z,135
2016-05-05T06:09:50.336Z,135
2016-05-05T06:10:50.465Z,135
2016-05-05T06:11:50.654Z,135
2016-05-05T06:12:50.640Z,140
2016-05-05T06:13:50.612Z,135
2016-05-05T06:14:50.568Z,135
2016-05-05T06:15:50.758Z,135
2016-05-05T06:16:50.808Z,140
2016-05-05T06:17:50.686Z,140
2016-05-05T06:18:50.610Z,140
2016-05-05T06:19:50.909Z,145
2016-05-05T06:20:50.975Z,145
2016-05-05T06:21:50.681Z,155
2016-05-05T06:22:51.058Z,160
2016-05-05T06:23:51.055Z,170
2016-05-05T06:24:52.261Z,170
2016-05-05T06:25:51.013Z,175
2016-05-05T06:26:51.080Z,185
2016-05-05T06:27:51.207Z,190
2016-05-05T06:28:51.303Z,200
2016-05-05T06:29:50.993Z,210
2016-05-05T06:30:51.184Z,215
2016-05-05T06:31:51.374Z,225
2016-05-05T06:32:51.424Z,235
2016-05-05T06:33:51.442Z,235
2016-05-05T06:34:51.491Z,235
2016-05-05T06:35:51.400Z,240
2016-05-05T06:36:51.606Z,245
2016-05-05T06:37:51.437Z,245
2016-05-05T06:38:51.658Z,245
2016-05-05T06:39:51.989Z,245
2016-05-05T06:40:51.601Z,245
2016-05-05T06:41:51.744Z,250
2016-05-05T06:42:51.654Z,255
2016-05-05T06:43:51.906Z,250
2016-05-05T06:44:51.768Z,255
2016-05-05T06:45:51.911Z,260
2016-05-05T06:46:51.867Z,260
2016-05-05T06:47:52.058Z,265
2016-05-05T06:48:52.028Z,265
2016-05-05T06:49:51.906Z,270
2016-05-05T06:50:51.972Z,270
2016-05-05T06:51:52.021Z,270
2016-05-05T06:52:52.180Z,275
2016-05-05T06:53:52.136Z,280
2016-05-05T06:54:53.311Z,280
2016-05-05T06:55:52.313Z,280
2016-05-05T06:56:52.207Z,285
2016-05-05T06:57:52.444Z,285
2016-05-05T06:58:52.493Z,290
2016-05-05T06:59:52.480Z,295
2016-05-05T07:00:52.232Z,300
2016-05-05T07:01:52.268Z,305
2016-05-05T07:02:52.613Z,305
2016-05-05T07:03:52.616Z,305
2016-05-05T07:04:52.557Z,310
2016-05-05T07:05:52.591Z,310
2016-05-05T07:06:52.749Z,315
2016-05-05T07:07:52.815Z,315
2016-05-05T07:08:52.864Z,320
2016-05-05T07:09:53.539Z,320
2016-05-05T07:10:52.745Z,325
2016-05-05T07:11:52.981Z,325
2016-05-05T07:12:53.031Z,330
2016-05-05T07:13:53.034Z,330
2016-05-05T07:14:52.787Z,330
2016-05-05T07:15:53.023Z,340
2016-05-05T07:16:53.197Z,340
2016-05-05T07:17:53.201Z,350
2016-05-05T07:18:53.266Z,370
2016-05-05T07:19:53.034Z,370
2016-05-05T07:20:53.021Z,380
2016-05-05T07:21:53.211Z,385
2016-05-05T07:22:53.308Z,390
2016-05-05T07:23:53.513Z,395
2016-05-05T07:24:53.391Z,395
2016-05-05T07:25:53.550Z,400
2016-05-05T07:26:53.444Z,400
2016-05-05T07:27:53.665Z,400
2016-05-05T07:28:53.668Z,400
2016-05-05T07:29:53.718Z,395
2016-05-05T07:30:53.767Z,395
2016-05-05T07:31:53.457Z,395
2016-05-05T07:32:53.835Z,395
2016-05-05T07:33:53.775Z,390
2016-05-05T07:34:53.762Z,395
2016-05-05T07:35:53.812Z,390
2016-05-05T07:36:53.830Z,395
2016-05-05T07:37:53.895Z,395
2016-05-05T07:38:54.085Z,400
2016-05-05T07:39:54.790Z,400
2016-05-05T07:40:54.044Z,405
2016-05-05T07:41:54.218Z,405
2016-05-05T07:42:54.252Z,410
2016-05-05T07:43:54.287Z,410
2016-05-05T07:44:54.383Z,410
2016-05-05T07:45:54.292Z,410
2016-05-05T07:46:54.263Z,405
2016-05-05T07:47:54.437Z,400
2016-05-05T07:48:54.362Z,395
2016-05-05T07:49:54.536Z,390
2016-05-05T07:50:54.415Z,390
2016-05-05T07:51:54.652Z,385
2016-05-05T07:52:54.686Z,395
2016-05-05T07:53:54.532Z,395
2016-05-05T07:54:54.628Z,405
2016-05-05T07:55:54.677Z,420
2016-05-05T07:56:54.696Z,425
2016-05-05T07:57:54.886Z,435
2016-05-05T07:58:54.764Z,440
2016-05-05T07:59:54.830Z,445
2016-05-05T08:00:54.847Z,460
2016-05-05T08:01:55.022Z,460
2016-05-05T08:02:54.977Z,460
2016-05-05T08:03:54.996Z,465
2016-05-05T08:04:54.999Z,465
2016-05-05T08:05:55.283Z,465
2016-05-05T08:06:55.302Z,460
2016-05-05T08:07:55.288Z,455
2016-05-05T08:08:55.165Z,450
2016-05-05T08:09:55.435Z,450
2016-05-05T08:10:55.437Z,450
2016-05-05T08:11:55.456Z,455
2016-05-05T08:12:55.254Z,460
2016-05-05T08:13:55.601Z,460
2016-05-05T08:14:55.573Z,460
2016-05-05T08:15:55.638Z,465
2016-05-05T08:16:55.750Z,465
2016-05-05T08:17:55.705Z,465
2016-05-05T08:18:55.787Z,465
2016-05-05T08:19:55.711Z,475
2016-05-05T08:20:55.886Z,475
2016-05-05T08:21:55.889Z,485
2016-05-05T08:22:55.954Z,485
2016-05-05T08:23:55.863Z,495
2016-05-05T08:24:56.053Z,510
2016-05-05T08:25:56.071Z,525
2016-05-05T08:26:56.121Z,545
2016-05-05T08:27:56.155Z,550
2016-05-05T08:28:56.048Z,565
2016-05-05T08:29:56.269Z,565
2016-05-05T08:30:56.132Z,560
2016-05-05T08:31:56.291Z,560
2016-05-05T08:32:56.355Z,540
2016-05-05T08:33:56.280Z,525
2016-05-05T08:34:56.486Z,505
2016-05-05T08:35:56.488Z,480
2016-05-05T08:36:56.351Z,465
2016-05-05T08:37:56.619Z,440
2016-05-05T08:38:56.606Z,430
2016-05-05T08:39:57.124Z,425
2016-05-05T08:40:56.689Z,430
2016-05-05T08:41:56.817Z,430
2016-05-05T08:42:56.757Z,435
2016-05-05T08:43:56.823Z,420
2016-05-05T08:44:56.903Z,410
2016-05-05T08:45:56.610Z,420
2016-05-05T08:46:56.940Z,425
2016-05-05T08:47:57.020Z,435
2016-05-05T08:48:56.883Z,430
2016-05-05T08:49:57.089Z,435
2016-05-05T08:50:57.107Z,425
2016-05-05T08:51:57.000Z,420
2016-05-05T08:52:57.269Z,425
2016-05-05T08:53:56.944Z,415
2016-05-05T08:54:57.227Z,410
2016-05-05T08:55:57.152Z,415
2016-05-05T08:56:57.295Z,410
2016-05-05T08:57:57.408Z,415
2016-05-05T08:58:57.316Z,410
2016-05-05T08:59:57.568Z,410
2016-05-05T09:00:57.556Z,410
2016-05-05T09:01:57.575Z,430
2016-05-05T09:02:57.685Z,440
2016-05-05T09:03:57.658Z,435
2016-05-05T09:04:57.723Z,440
2016-05-05T09:05:57.788Z,455
2016-05-05T09:06:57.665Z,465
2016-05-05T09:07:57.840Z,460
2016-05-05T09:08:57.874Z,460
2016-05-05T09:09:57.815Z,470
2016-05-05T09:10:57.817Z,470
2016-05-05T09:11:58.007Z,475
2016-05-05T09:12:57.932Z,465
2016-05-05T09:13:57.919Z,465
2016-05-05T09:14:58.156Z,460
2016-05-05T09:15:58.315Z,480
2016-05-05T09:16:58.115Z,485
2016-05-05T09:17:58.087Z,515
2016-05-05T09:18:58.166Z,560
2016-05-05T09:19:58.357Z,590
2016-05-05T09:20:58.250Z,595
2016-05-05T09:21:58.425Z,590
2016-05-05T09:22:58.490Z,595
2016-05-05T09:23:58.383Z,610
2016-05-05T09:24:58.402Z,625
2016-05-05T09:25:58.607Z,635
2016-05-05T09:26:58.642Z,640
2016-05-05T09:27:58.566Z,625
2016-05-05T09:28:58.756Z,595
2016-05-05T09:29:58.824Z,575
2016-05-05T09:30:59.018Z,570
2016-05-05T09:31:58.911Z,595
2016-05-05T09:33:00.802Z,615
2016-05-05T09:33:58.809Z,630
2016-05-05T09:34:58.702Z,640
2016-05-05T09:35:59.064Z,665
2016-05-05T09:36:58.911Z,685
2016-05-05T09:37:59.116Z,705
2016-05-05T09:38:59.196Z,700
2016-05-05T09:39:59.232Z,700
2016-05-05T09:40:59.249Z,705
2016-05-05T09:41:59.096Z,715
2016-05-05T09:42:59.374Z,700
2016-05-05T09:43:59.362Z,665
2016-05-05T09:44:59.426Z,650
2016-05-05T09:45:59.459Z,645
2016-05-05T09:46:59.338Z,620
2016-05-05T09:48:02.825Z,585
2016-05-05T09:48:59.422Z,550
2016-05-05T09:49:59.659Z,515
2016-05-05T09:50:59.505Z,485
2016-05-05T09:51:59.555Z,445
2016-05-05T09:52:59.620Z,415
2016-05-05T09:53:59.810Z,390
2016-05-05T09:55:01.281Z,375
2016-05-05T09:55:59.925Z,370
2016-05-05T09:56:59.833Z,375
2016-05-05T09:57:59.899Z,395
2016-05-05T09:59:00.027Z,420
2016-05-05T10:00:00.107Z,440
2016-05-05T10:01:00.110Z,455
2016-05-05T10:02:00.160Z,460
2016-05-05T10:03:00.037Z,465
2016-05-05T10:04:00.118Z,460
2016-05-05T10:05:00.339Z,450
2016-05-05T10:06:00.357Z,435
2016-05-05T10:07:00.345Z,415
2016-05-05T10:08:00.269Z,405
2016-05-05T10:09:00.146Z,400
2016-05-05T10:10:00.712Z,400
2016-05-05T10:11:00.731Z,400
2016-05-05T10:12:00.436Z,405
2016-05-05T10:13:00.533Z,410
2016-05-05T10:14:00.504Z,410
2016-05-05T10:15:00.741Z,410
2016-05-05T10:16:00.791Z,405
2016-05-05T10:17:00.497Z,410
2016-05-05T10:18:00.827Z,420
2016-05-05T10:19:01.034Z,440
2016-05-05T10:20:00.551Z,465
2016-05-05T10:21:00.960Z,485
2016-05-05T10:22:01.026Z,505
2016-05-05T10:23:01.106Z,560
2016-05-05T10:24:01.109Z,650
2016-05-05T10:25:01.018Z,905
2016-05-05T10:26:01.067Z,725
2016-05-05T10:27:01.305Z,740
2016-05-05T10:28:01.152Z,755
2016-05-05T10:29:01.325Z,825
2016-05-05T10:30:01.422Z,800
2016-05-05T10:31:01.440Z,1005
2016-05-05T10:32:01.458Z,950
2016-05-05T10:33:01.509Z,3015
2016-05-05T10:34:01.230Z,1040
2016-05-05T10:35:01.592Z,3060
2016-05-05T10:36:01.641Z,3075
2016-05-05T10:37:01.738Z,3025
2016-05-05T10:38:01.788Z,3075
2016-05-05T10:39:01.806Z,3015
2016-05-05T10:40:03.105Z,3035
2016-05-05T10:41:01.904Z,3040
2016-05-05T10:42:01.860Z,3030
2016-05-05T10:43:01.660Z,3065
2016-05-05T10:44:01.913Z,3055
2016-05-05T10:45:01.962Z,3045
2016-05-05T10:46:02.137Z,3025
2016-05-05T10:47:02.031Z,3045
2016-05-05T10:48:02.081Z,3040
2016-05-05T10:49:02.270Z,3035
2016-05-05T10:50:02.179Z,3005
2016-05-05T10:51:02.244Z,3010
2016-05-05T10:52:02.184Z,3020
2016-05-05T10:53:02.500Z,3070
2016-05-05T10:54:02.439Z,2990
2016-05-05T10:55:02.989Z,3045
2016-05-05T10:56:02.820Z,3015
2016-05-05T10:57:03.448Z,3035
2016-05-05T10:58:02.857Z,3120
2016-05-05T10:59:02.907Z,3135
2016-05-05T11:00:02.969Z,3115
2016-05-05T11:01:03.093Z,3160
2016-05-05T11:02:03.218Z,3165
2016-05-05T11:03:03.155Z,3130
2016-05-05T11:04:03.384Z,3115
2016-05-05T11:05:03.793Z,3070
2016-05-05T11:06:03.515Z,3065
2016-05-05T11:07:03.580Z,3345
2016-05-05T11:08:03.505Z,3550
2016-05-05T11:09:03.579Z,3535
2016-05-05T11:10:05.447Z,3465
2016-05-05T11:11:03.533Z,3430
2016-05-05T11:12:03.806Z,3255
2016-05-05T11:13:03.846Z,3100
2016-05-05T11:14:04.054Z,2590
2016-05-05T11:15:03.981Z,3360
2016-05-05T11:16:04.188Z,3420
2016-05-05T11:17:04.208Z,3555
2016-05-05T11:18:04.306Z,3505
2016-05-05T11:19:04.186Z,3665
2016-05-05T11:20:04.423Z,3750
2016-05-05T11:21:04.333Z,3765
2016-05-05T11:22:04.602Z,3870
2016-05-05T11:23:04.657Z,3905
2016-05-05T11:24:04.480Z,3890
2016-05-05T11:25:04.655Z,3870
2016-05-05T11:26:04.627Z,3850
2016-05-05T11:27:04.864Z,3785
2016-05-05T11:28:04.914Z,3780
2016-05-05T11:29:04.683Z,3750
2016-05-05T11:30:04.905Z,3705
2016-05-05T11:31:05.079Z,3675
2016-05-05T11:32:05.223Z,3665
2016-05-05T11:33:05.101Z,3715
2016-05-05T11:34:05.119Z,3760
2016-05-05T11:35:05.340Z,3820
2016-05-05T11:36:05.421Z,3865
2016-05-05T11:37:05.471Z,3910
2016-05-05T11:38:05.535Z,3895
2016-05-05T11:39:05.647Z,3865
2016-05-05T11:40:05.917Z,3885
2016-05-05T11:41:05.544Z,3820
2016-05-05T11:42:05.672Z,3845
2016-05-05T11:43:05.862Z,3840
2016-05-05T11:44:05.911Z,3830
2016-05-05T11:45:05.976Z,3815
2016-05-05T11:46:06.105Z,3800
2016-05-05T11:47:05.779Z,3755
2016-05-05T11:48:06.016Z,3740
2016-05-05T11:49:06.096Z,3730
2016-05-05T11:50:06.334Z,3665
2016-05-05T11:51:06.196Z,3660
2016-05-05T11:52:06.464Z,3635
2016-05-05T11:53:06.342Z,3665
2016-05-05T11:54:06.563Z,3675
2016-05-05T11:55:07.113Z,3645
2016-05-05T11:56:06.726Z,3680
2016-05-05T11:57:06.728Z,3700
2016-05-05T11:58:06.637Z,3735
2016-05-05T11:59:06.561Z,3760
2016-05-05T12:00:06.626Z,3760
2016-05-05T12:01:06.691Z,3720
2016-05-05T12:02:06.741Z,3725
2016-05-05T12:03:07.150Z,3710
2016-05-05T12:04:07.184Z,3680
2016-05-05T12:05:07.297Z,3665
2016-05-05T12:06:07.361Z,3595
2016-05-05T12:07:07.364Z,3545
2016-05-05T12:08:07.132Z,3515
2016-05-05T12:09:07.369Z,3520
2016-05-05T12:10:07.981Z,3535
2016-05-05T12:11:07.453Z,3535
2016-05-05T12:12:07.721Z,3545
2016-05-05T12:13:07.739Z,3575
2016-05-05T12:14:07.663Z,3585
2016-05-05T12:15:07.744Z,3575
2016-05-05T12:16:07.793Z,3590
2016-05-05T12:17:07.844Z,3570
2016-05-05T12:18:08.082Z,3560
2016-05-05T12:19:07.818Z,3550
2016-05-05T12:20:08.087Z,3535
2016-05-05T12:21:08.260Z,3525
2016-05-05T12:22:08.201Z,3525
2016-05-05T12:23:08.109Z,3550
2016-05-05T12:24:08.331Z,3565
2016-05-05T12:25:08.772Z,3545
2016-05-05T12:26:08.649Z,3575
2016-05-05T12:27:08.637Z,3555
2016-05-05T12:28:08.576Z,3490
2016-05-05T12:29:08.782Z,3480
2016-05-05T12:30:08.831Z,3420
2016-05-05T12:31:08.742Z,3395
2016-05-05T12:32:08.994Z,3365
2016-05-05T12:33:08.324Z,3385
2016-05-05T12:34:09.092Z,3360
2016-05-05T12:35:09.048Z,3350
2016-05-05T12:36:09.238Z,3355
2016-05-05T12:37:09.288Z,3330
2016-05-05T12:38:09.338Z,3335
2016-05-05T12:39:09.466Z,3250
2016-05-05T12:40:09.827Z,3215
2016-05-05T12:41:09.408Z,3165
2016-05-05T12:42:09.442Z,3115
2016-05-05T12:43:09.663Z,3035
2016-05-05T12:44:09.729Z,3000
2016-05-05T12:45:09.810Z,2990
2016-05-05T12:46:09.844Z,3035
2016-05-05T12:47:09.768Z,3010
2016-05-05T12:48:09.880Z,3015
2016-05-05T12:49:10.040Z,3040
2016-05-05T12:50:09.932Z,3055
2016-05-05T12:51:09.857Z,3065
2016-05-05T12:52:10.125Z,3105
2016-05-05T12:53:10.300Z,3155
2016-05-05T12:54:09.740Z,3165
2016-05-05T12:55:10.681Z,3160
2016-05-05T12:56:10.496Z,3145
2016-05-05T12:57:10.561Z,3145
2016-05-05T12:58:10.672Z,3105
2016-05-05T12:59:10.722Z,3085
2016-05-05T13:00:10.710Z,3090
2016-05-05T13:01:10.650Z,3120
2016-05-05T13:02:10.903Z,3125
2016-05-05T13:03:10.639Z,3075
2016-05-05T13:04:10.845Z,3065
2016-05-05T13:05:11.098Z,3000
2016-05-05T13:06:10.991Z,3000
2016-05-05T13:07:11.166Z,2930
2016-05-05T13:08:11.247Z,2855
2016-05-05T13:09:11.125Z,2785
2016-05-05T13:10:11.861Z,2780
2016-05-05T13:11:11.130Z,2795
2016-05-05T13:12:11.320Z,2830
2016-05-05T13:13:11.400Z,2860
2016-05-05T13:14:11.607Z,2845
2016-05-05T13:15:11.687Z,2815
2016-05-05T13:16:11.612Z,2755
2016-05-05T13:17:11.818Z,2725
2016-05-05T13:18:11.883Z,2665
2016-05-05T13:19:11.932Z,2595
2016-05-05T13:20:11.998Z,2530
2016-05-05T13:21:12.126Z,2665
2016-05-05T13:22:12.144Z,2665
2016-05-05T13:23:12.162Z,2755
2016-05-05T13:24:12.259Z,2700
2016-05-05T13:25:13.980Z,2695
2016-05-05T13:26:12.217Z,2710
2016-05-05T13:27:12.298Z,2725
2016-05-05T13:28:12.270Z,2715
2016-05-05T13:29:12.553Z,2670
2016-05-05T13:30:12.634Z,2615
2016-05-05T13:31:12.715Z,2705
2016-05-05T13:32:12.608Z,2690
2016-05-05T13:33:12.814Z,2580
2016-05-05T13:34:12.879Z,2680
2016-05-05T13:35:12.664Z,2610
2016-05-05T13:36:12.994Z,2565
2016-05-05T13:37:13.636Z,2570
2016-05-05T13:38:34.142Z,2495
2016-05-05T13:39:14.299Z,2485
2016-05-05T13:40:13.223Z,2430
2016-05-05T13:41:13.320Z,2390
2016-05-05T13:42:13.228Z,2370
2016-05-05T13:43:13.278Z,2305
2016-05-05T13:44:13.391Z,2295
2016-05-05T13:45:13.596Z,2300
2016-05-05T13:46:13.474Z,2320
2016-05-05T13:47:13.711Z,2325
2016-05-05T13:48:13.839Z,2290
2016-05-05T13:49:13.669Z,2240
2016-05-05T13:50:13.734Z,2175
2016-05-05T13:51:14.003Z,2150
2016-05-05T13:52:14.037Z,1915
2016-05-05T13:53:14.055Z,2050
2016-05-05T13:54:14.152Z,2155
2016-05-05T13:55:14.467Z,2205
2016-05-05T13:56:14.251Z,2245
2016-05-05T13:57:14.144Z,2255